Cascabel, Arizona
Current Conditions -  °F | °C
As of 1:58 AM on Saturday 25 Oct 2014 (Local Time) from KDMA Reporting Station
Clear Clear  
Wind Chill: 67°   Ceiling: Unl
Heat Index: 67°   Visibility: 10mi
Dew Point: 47°   Wind: 10mph
Humidity: 48%   Direction: 140°SE
Pressure: 30.09"   Gusts: NA
Location:  32.1865°N, 110.265°W
Report Text: KDMA 250858Z AUTO 14009KT 10SM CLR 19/08 A3009 RMK AO2 SLP149 T01940081 55003 $
Loading
Personal Weather Stations






























Interactive Weather Map
Tropical Storm Tracking
New forecast layout! Learn more

10-Day Weather Forecast

Advertisements
Track Severe Weather on mobile